Time;durP1;ratioP1;P1;durP2;ratioP2;P2;SDS_P1;SDS_P2;PMS_P1;PMS_P2;Temp;Humidity;BMP_temperature;BMP_pressure;BME280_temperature;BME280_humidity;BME280_pressure;Samples;Min_cycle;Max_cycle;Signal;HPM_P1;HPM_P2
2022/06/24 00:02:22;;;;;;;6.53;1.55;;;;;;;18.00;100.00;95391.56;4966175;28;24808;-75
2022/06/24 00:04:53;;;;;;;4.93;1.60;;;;;;;18.08;100.00;95387.19;4969368;28;24478;-75
2022/06/24 00:07:20;;;;;;;3.70;1.42;;;;;;;18.07;100.00;95382.94;4966594;28;24445;-75
2022/06/24 00:09:46;;;;;;;3.80;1.33;;;;;;;18.14;100.00;95383.16;4971532;28;24450;-75
2022/06/24 00:12:16;;;;;;;4.03;1.40;;;;;;;18.13;100.00;95382.34;4972089;28;24437;-75
2022/06/24 00:14:46;;;;;;;3.38;1.42;;;;;;;18.11;100.00;95386.09;4971755;28;24429;-75
2022/06/24 00:17:14;;;;;;;5.38;1.50;;;;;;;18.18;100.00;95378.44;4965314;28;24496;-75
2022/06/24 00:19:53;;;;;;;3.42;1.10;;;;;;;18.16;100.00;95381.19;4967498;28;24442;-75
2022/06/24 00:22:21;;;;;;;3.45;1.58;;;;;;;18.24;100.00;95372.56;4970175;28;24437;-75
2022/06/24 00:24:48;;;;;;;2.92;1.35;;;;;;;18.27;100.00;95380.97;4963750;28;24457;-74
2022/06/24 00:27:20;;;;;;;3.30;1.25;;;;;;;18.31;100.00;95371.81;4969981;28;24466;-75
2022/06/24 00:29:47;;;;;;;3.08;1.27;;;;;;;18.33;100.00;95377.72;4981096;28;24452;-75
2022/06/24 00:32:13;;;;;;;3.47;1.40;;;;;;;18.24;100.00;95377.81;4977183;28;24484;-75
2022/06/24 00:34:41;;;;;;;4.78;1.58;;;;;;;18.24;100.00;95369.94;4972804;28;24433;-75
2022/06/24 00:37:27;;;;;;;2.33;1.20;;;;;;;18.29;100.00;95365.09;4965366;28;24441;-75
2022/06/24 00:39:56;;;;;;;3.03;1.20;;;;;;;18.23;100.00;95371.75;4970707;28;24526;-75
2022/06/24 00:42:25;;;;;;;2.97;1.48;;;;;;;18.19;100.00;95375.66;4971496;28;24493;-75
2022/06/24 00:45:00;;;;;;;5.32;1.75;;;;;;;18.23;100.00;95377.00;4971340;28;24445;-75
2022/06/24 00:47:28;;;;;;;14.90;1.40;;;;;;;18.23;100.00;95378.81;4966034;28;24445;-75
2022/06/24 00:49:57;;;;;;;2.08;1.02;;;;;;;18.14;100.00;95393.66;4968763;28;24445;-75
2022/06/24 00:52:24;;;;;;;5.13;1.50;;;;;;;18.13;100.00;95377.09;4971689;28;24535;-75
2022/06/24 00:54:51;;;;;;;5.00;1.75;;;;;;;17.99;100.00;95374.22;4971548;28;24433;-75
2022/06/24 00:57:18;;;;;;;4.13;1.40;;;;;;;17.95;100.00;95378.94;4966502;28;24805;-75
2022/06/24 00:59:48;;;;;;;4.53;1.35;;;;;;;17.90;100.00;95383.78;4971553;28;24438;-75
2022/06/24 01:02:16;;;;;;;5.38;1.67;;;;;;;17.90;100.00;95378.53;4968820;28;24453;-75
2022/06/24 01:04:47;;;;;;;3.63;1.63;;;;;;;17.86;100.00;95372.78;4973494;28;22812;-75
2022/06/24 01:07:14;;;;;;;3.15;1.50;;;;;;;17.72;100.00;95372.44;4975098;28;24434;-75
2022/06/24 01:09:41;;;;;;;4.55;1.52;;;;;;;17.76;100.00;95369.44;4973519;28;25001;-74
2022/06/24 01:12:09;;;;;;;5.20;1.58;;;;;;;17.83;100.00;95374.88;4971283;28;24440;-75
2022/06/24 01:14:36;;;;;;;6.57;1.80;;;;;;;17.75;100.00;95369.53;4975007;28;24524;-75
2022/06/24 01:17:04;;;;;;;4.63;1.75;;;;;;;17.63;100.00;95369.75;4974778;28;24437;-75
2022/06/24 01:19:31;;;;;;;5.87;1.73;;;;;;;17.49;100.00;95372.06;4969221;28;24525;-75
2022/06/24 01:21:58;;;;;;;8.38;1.77;;;;;;;17.53;100.00;95362.94;4971119;28;24440;-75
2022/06/24 01:24:26;;;;;;;9.57;2.03;;;;;;;17.51;100.00;95367.53;4965619;28;24447;-75
2022/06/24 01:26:53;;;;;;;4.28;1.60;;;;;;;17.63;100.00;95375.00;4970251;28;24472;-75
2022/06/24 01:29:20;;;;;;;5.27;2.30;;;;;;;17.54;100.00;95373.28;4972553;28;24446;-75
2022/06/24 01:31:48;;;;;;;4.85;1.95;;;;;;;17.56;100.00;95378.34;4968722;28;24795;-75
2022/06/24 01:34:16;;;;;;;6.85;2.13;;;;;;;17.52;100.00;95377.00;4964925;28;24524;-75
2022/06/24 01:36:42;;;;;;;5.65;1.90;;;;;;;17.61;100.00;95370.88;4974345;28;24433;-75
2022/06/24 01:39:11;;;;;;;5.13;2.10;;;;;;;17.56;100.00;95360.03;4974153;28;24441;-75
2022/06/24 01:41:38;;;;;;;3.53;1.85;;;;;;;17.56;100.00;95355.63;4974264;28;24444;-75
2022/06/24 01:44:06;;;;;;;8.15;2.30;;;;;;;17.29;100.00;95350.44;4970838;28;25033;-74
2022/06/24 01:46:32;;;;;;;10.07;2.07;;;;;;;17.32;100.00;95350.16;4972048;28;24560;-75
2022/06/24 01:48:59;;;;;;;5.32;1.98;;;;;;;17.39;100.00;95348.56;4973808;28;24538;-75
2022/06/24 01:51:28;;;;;;;5.00;2.10;;;;;;;17.31;100.00;95351.09;4974670;28;24453;-75
2022/06/24 01:53:54;;;;;;;4.90;1.92;;;;;;;17.32;100.00;95350.16;4969022;28;24528;-75
2022/06/24 01:56:22;;;;;;;7.53;2.05;;;;;;;17.38;100.00;95349.53;4973852;28;24458;-75
2022/06/24 01:58:48;;;;;;;3.85;1.70;;;;;;;17.47;100.00;95351.28;4965809;28;24493;-75
2022/06/24 02:01:15;;;;;;;4.80;1.80;;;;;;;17.50;100.00;95343.13;5043386;23;24475;-75
2022/06/24 02:03:42;;;;;;;4.25;1.70;;;;;;;17.55;100.00;95356.59;5052007;28;24431;-75
2022/06/24 02:06:10;;;;;;;5.30;1.80;;;;;;;17.63;100.00;95340.94;5051774;28;25011;-75
2022/06/24 02:08:37;;;;;;;6.60;1.67;;;;;;;17.65;100.00;95349.50;5049234;28;24439;-75
2022/06/24 02:13:50;;;;;;;5.35;2.00;;;;;;;17.68;100.00;95332.63;5045222;28;24477;-75
2022/06/24 02:16:20;;;;;;;3.50;1.90;;;;;;;17.65;100.00;95332.97;5043402;28;24525;-75
2022/06/24 02:18:47;;;;;;;4.32;1.98;;;;;;;17.64;100.00;95329.50;5038854;28;24446;-75
2022/06/24 02:21:13;;;;;;;3.70;1.70;;;;;;;17.57;100.00;95330.25;5042936;28;24825;-75
2022/06/24 02:23:40;;;;;;;3.67;1.80;;;;;;;17.62;100.00;95320.97;5044216;28;24877;-75
2022/06/24 02:26:06;;;;;;;3.80;1.80;;;;;;;17.51;100.00;95333.47;5037759;28;24474;-75
2022/06/24 02:28:33;;;;;;;4.70;2.13;;;;;;;17.45;100.00;95324.41;5041939;28;24439;-75
2022/06/24 02:31:02;;;;;;;6.38;1.90;;;;;;;17.38;100.00;95326.78;5043414;28;24505;-75
2022/06/24 02:33:29;;;;;;;8.38;2.08;;;;;;;17.40;100.00;95330.09;5048914;28;24451;-75
2022/06/24 02:35:56;;;;;;;7.65;1.75;;;;;;;17.33;100.00;95331.66;5046520;28;24801;-75
2022/06/24 02:38:22;;;;;;;3.13;1.52;;;;;;;17.41;100.00;95334.34;5041605;28;24446;-75
2022/06/24 02:40:49;;;;;;;4.75;2.03;;;;;;;17.22;100.00;95331.88;5047527;28;24450;-75
2022/06/24 02:43:17;;;;;;;3.55;1.50;;;;;;;17.28;100.00;95331.31;5032724;28;24475;-75
2022/06/24 02:45:45;;;;;;;7.72;2.28;;;;;;;17.04;100.00;95331.03;5032954;28;24984;-75
2022/06/24 02:48:13;;;;;;;4.25;1.75;;;;;;;17.06;100.00;95332.53;5035840;28;24439;-75
2022/06/24 02:50:41;;;;;;;3.53;2.15;;;;;;;16.99;100.00;95325.44;5038088;28;24443;-75
2022/06/24 02:53:08;;;;;;;4.00;2.00;;;;;;;17.00;100.00;95325.25;5039428;28;24439;-75
2022/06/24 02:55:35;;;;;;;4.38;2.17;;;;;;;17.08;100.00;95327.16;5037822;28;24984;-75
2022/06/24 02:58:01;;;;;;;4.47;1.80;;;;;;;17.12;100.00;95331.94;5039642;28;24474;-75
2022/06/24 03:00:29;;;;;;;5.80;2.00;;;;;;;17.08;100.00;95324.53;5047731;28;24442;-75
2022/06/24 03:02:55;;;;;;;5.43;2.33;;;;;;;17.01;100.00;95323.47;5037718;28;24987;-74
2022/06/24 03:05:23;;;;;;;5.63;2.50;;;;;;;16.93;100.00;95317.16;5036642;28;24462;-74
2022/06/24 03:07:50;;;;;;;6.20;2.65;;;;;;;16.90;100.00;95320.06;5043867;28;24443;-74
2022/06/24 03:10:17;;;;;;;7.60;2.95;;;;;;;16.94;100.00;95320.59;5037088;28;24996;-74
2022/06/24 03:12:44;;;;;;;5.22;3.05;;;;;;;16.91;100.00;95321.75;5042878;28;24439;-74
2022/06/24 03:15:11;;;;;;;7.15;2.70;;;;;;;16.79;100.00;95317.66;5036393;28;24444;-74
2022/06/24 03:17:37;;;;;;;7.22;2.72;;;;;;;16.85;100.00;95319.69;5045577;28;24432;-75
2022/06/24 03:20:05;;;;;;;4.20;2.00;;;;;;;16.84;100.00;95315.44;5040358;28;24884;-75
2022/06/24 03:22:33;;;;;;;5.97;2.03;;;;;;;16.82;100.00;95312.13;5034801;28;24436;-75
2022/06/24 03:24:59;;;;;;;3.78;2.10;;;;;;;16.95;100.00;95316.22;5038814;28;24984;-75
2022/06/24 03:27:26;;;;;;;9.77;2.13;;;;;;;16.86;100.00;95323.94;5040636;28;24435;-75
2022/06/24 03:29:53;;;;;;;12.20;2.92;;;;;;;16.83;100.00;95313.78;5032520;28;24444;-75
2022/06/24 03:32:19;;;;;;;4.88;2.60;;;;;;;16.81;100.00;95314.91;5035819;28;24451;-75
2022/06/24 03:34:45;;;;;;;4.15;2.42;;;;;;;16.76;100.00;95317.97;5044050;28;24481;-75
2022/06/24 03:37:12;;;;;;;4.18;2.40;;;;;;;16.86;100.00;95313.50;5036296;28;24431;-75
2022/06/24 03:39:40;;;;;;;5.28;2.20;;;;;;;16.84;100.00;95319.84;5038881;28;24992;-75
2022/06/24 03:42:06;;;;;;;6.03;2.40;;;;;;;16.86;100.00;95316.09;5032130;28;24608;-75
2022/06/24 03:44:33;;;;;;;5.03;1.92;;;;;;;16.94;100.00;95315.38;5036688;28;24860;-75
2022/06/24 03:47:01;;;;;;;5.00;2.13;;;;;;;16.94;100.00;95325.84;5041096;28;24451;-75
2022/06/24 03:49:27;;;;;;;5.30;2.33;;;;;;;16.95;100.00;95327.50;5044474;28;24436;-75
2022/06/24 03:51:54;;;;;;;5.40;2.00;;;;;;;16.96;100.00;95326.53;5032642;28;24557;-75
2022/06/24 03:54:21;;;;;;;4.63;2.47;;;;;;;16.83;100.00;95316.41;5037954;28;24439;-75
2022/06/24 03:56:49;;;;;;;5.60;2.63;;;;;;;16.88;100.00;95316.78;5032006;28;24908;-75
2022/06/24 03:59:15;;;;;;;4.00;1.90;;;;;;;16.91;100.00;95318.31;5030489;28;24435;-75
2022/06/24 04:01:42;;;;;;;3.45;2.08;;;;;;;16.84;100.00;95315.44;5037156;28;24458;-75
2022/06/24 04:04:08;;;;;;;11.98;2.65;;;;;;;16.92;100.00;95312.91;5036744;28;24447;-75
2022/06/24 04:06:35;;;;;;;6.22;2.10;;;;;;;17.02;100.00;95322.50;5033709;28;24455;-76
2022/06/24 04:09:01;;;;;;;4.20;2.17;;;;;;;17.02;100.00;95323.34;5038327;28;24440;-76
2022/06/24 04:11:27;;;;;;;9.82;2.60;;;;;;;17.01;100.00;95318.22;5040890;28;24442;-76
2022/06/24 04:13:55;;;;;;;6.43;2.05;;;;;;;16.99;100.00;95315.78;5037016;28;24443;-76
2022/06/24 04:16:22;;;;;;;5.07;2.17;;;;;;;16.90;100.00;95321.88;5041394;28;25058;-76
2022/06/24 04:18:48;;;;;;;7.07;2.03;;;;;;;16.80;100.00;95310.66;5032008;28;24517;-76
2022/06/24 04:21:16;;;;;;;7.45;2.10;;;;;;;16.76;100.00;95312.75;5039085;28;24871;-76
2022/06/24 04:23:44;;;;;;;4.30;1.80;;;;;;;16.86;100.00;95310.06;5039333;28;24440;-76
2022/06/24 04:26:11;;;;;;;5.13;2.30;;;;;;;17.01;100.00;95305.97;5038697;28;24447;-76
2022/06/24 04:28:38;;;;;;;4.38;2.50;;;;;;;17.12;100.00;95310.19;5035953;28;24432;-76
2022/06/24 04:31:06;;;;;;;3.95;1.73;;;;;;;17.18;100.00;95313.03;5038999;28;24446;-76
2022/06/24 04:33:32;;;;;;;9.23;2.60;;;;;;;17.23;100.00;95304.72;5035194;28;25015;-77
2022/06/24 04:35:59;;;;;;;5.32;2.20;;;;;;;17.33;100.00;95308.13;5032717;28;24467;-76
2022/06/24 04:38:25;;;;;;;6.80;2.20;;;;;;;17.37;100.00;95303.41;5036655;28;24435;-75
2022/06/24 04:40:52;;;;;;;7.30;2.30;;;;;;;17.16;100.00;95309.72;5030893;28;24444;-76
2022/06/24 04:43:18;;;;;;;6.13;2.40;;;;;;;17.25;100.00;95313.28;5036059;28;24454;-75
2022/06/24 04:45:45;;;;;;;5.07;2.10;;;;;;;17.37;100.00;95312.06;5031579;28;24435;-76
2022/06/24 04:48:13;;;;;;;6.13;2.20;;;;;;;17.51;100.00;95302.88;5032496;28;24438;-76
2022/06/24 04:50:40;;;;;;;5.65;2.25;;;;;;;17.63;100.00;95298.22;5031305;28;24467;-76
2022/06/24 04:53:07;;;;;;;7.90;2.30;;;;;;;17.64;100.00;95298.06;5036655;28;24460;-76
2022/06/24 04:55:33;;;;;;;4.85;2.35;;;;;;;17.73;100.00;95296.34;5037848;28;24439;-75
2022/06/24 04:58:00;;;;;;;4.00;2.00;;;;;;;17.77;100.00;95287.25;5039059;28;24531;-76
2022/06/24 05:00:26;;;;;;;6.90;2.38;;;;;;;17.55;100.00;95293.75;5036717;28;25030;-77
2022/06/24 05:02:53;;;;;;;6.28;2.90;;;;;;;17.34;100.00;95294.03;5036383;28;24522;-77
2022/06/24 05:05:21;;;;;;;4.18;2.10;;;;;;;17.38;100.00;95305.84;5034925;28;24864;-76
2022/06/24 05:07:48;;;;;;;8.90;2.33;;;;;;;17.37;100.00;95304.22;5036589;28;24505;-77
2022/06/24 05:10:15;;;;;;;11.30;2.65;;;;;;;17.50;100.00;95301.25;5043908;28;24431;-77
2022/06/24 05:12:42;;;;;;;4.63;2.08;;;;;;;17.56;100.00;95305.88;5039818;28;24439;-77
2022/06/24 05:15:09;;;;;;;10.95;2.35;;;;;;;17.83;100.00;95304.97;5033986;28;24443;-80
2022/06/24 05:17:36;;;;;;;6.72;1.92;;;;;;;17.93;100.00;95297.03;5032955;28;24438;-75
2022/06/24 05:20:03;;;;;;;8.20;2.47;;;;;;;17.82;100.00;95300.72;5028387;28;24446;-75
2022/06/24 05:22:30;;;;;;;5.10;1.90;;;;;;;17.74;100.00;95303.22;5037037;28;24996;-75
2022/06/24 05:24:57;;;;;;;4.88;1.90;;;;;;;17.72;100.00;95292.06;5041513;28;24480;-79
2022/06/24 05:27:23;;;;;;;4.85;2.10;;;;;;;17.59;100.00;95300.34;5031524;28;24505;-75
2022/06/24 05:29:50;;;;;;;6.20;2.10;;;;;;;17.63;100.00;95293.81;5035553;28;24713;-74
2022/06/24 05:32:16;;;;;;;7.20;2.05;;;;;;;17.58;100.00;95276.94;5035282;28;24436;-76
2022/06/24 05:34:43;;;;;;;7.22;2.30;;;;;;;17.72;100.00;95286.03;5044097;28;24446;-76
2022/06/24 05:37:09;;;;;;;4.53;1.95;;;;;;;17.74;100.00;95284.91;5032058;28;24466;-74
2022/06/24 05:39:37;;;;;;;7.57;2.30;;;;;;;17.77;100.00;95289.06;5034324;28;24455;-74
2022/06/24 05:42:04;;;;;;;5.00;2.37;;;;;;;17.73;100.00;95288.50;5031510;28;24439;-75
2022/06/24 05:44:30;;;;;;;9.95;2.33;;;;;;;17.65;100.00;95294.50;5029886;28;24432;-73
2022/06/24 05:46:57;;;;;;;7.33;2.30;;;;;;;17.75;100.00;95293.56;5034802;28;24611;-73
2022/06/24 05:49:23;;;;;;;5.20;2.08;;;;;;;17.84;100.00;95285.66;5030448;28;24845;-73
2022/06/24 05:51:50;;;;;;;4.65;2.05;;;;;;;17.91;100.00;95275.41;5034070;28;24443;-74
2022/06/24 05:57:01;;;;;;;4.53;2.33;;;;;;;18.09;100.00;95284.03;5036037;28;24493;-73
2022/06/24 05:59:28;;;;;;;8.93;2.05;;;;;;;18.17;100.00;95278.03;5033136;28;24439;-73
2022/06/24 06:01:54;;;;;;;5.55;2.22;;;;;;;18.12;100.00;95283.72;5043368;28;24443;-75
2022/06/24 06:04:21;;;;;;;8.80;2.50;;;;;;;18.32;100.00;95280.91;5034077;28;25169;-75
2022/06/24 06:06:48;;;;;;;6.28;1.90;;;;;;;18.68;100.00;95284.16;5039054;28;24447;-75
2022/06/24 06:09:15;;;;;;;9.75;2.45;;;;;;;18.56;100.00;95278.38;5036843;28;24519;-75
2022/06/24 06:11:41;;;;;;;5.47;2.45;;;;;;;18.61;100.00;95281.38;5044805;28;24497;-76
2022/06/24 06:14:09;;;;;;;8.27;2.63;;;;;;;18.66;100.00;95282.69;5044241;28;24442;-75
2022/06/24 06:16:35;;;;;;;9.10;2.67;;;;;;;19.15;100.00;95290.75;5035820;28;24473;-75
2022/06/24 06:19:02;;;;;;;9.98;3.50;;;;;;;19.05;100.00;95288.25;5043360;28;24640;-76
2022/06/24 06:21:28;;;;;;;6.63;2.50;;;;;;;18.96;100.00;95286.59;5044017;28;24458;-76
2022/06/24 06:23:55;;;;;;;8.70;2.50;;;;;;;19.01;100.00;95281.69;5042414;28;24888;-76
2022/06/24 06:26:21;;;;;;;10.93;2.80;;;;;;;19.08;100.00;95283.50;5041550;28;24458;-76
2022/06/24 06:28:48;;;;;;;5.38;2.90;;;;;;;19.26;100.00;95285.19;5033163;28;24444;-76
2022/06/24 06:31:15;;;;;;;7.43;2.60;;;;;;;19.38;100.00;95283.91;5041841;28;24450;-76
2022/06/24 06:33:42;;;;;;;9.03;2.80;;;;;;;19.49;100.00;95286.19;5043227;28;24520;-76
2022/06/24 06:36:10;;;;;;;8.63;2.63;;;;;;;19.79;100.00;95287.38;5032182;28;24432;-76
2022/06/24 06:38:37;;;;;;;10.32;2.90;;;;;;;19.70;100.00;95291.00;5039533;28;24438;-76
2022/06/24 06:41:04;;;;;;;6.85;2.40;;;;;;;19.98;100.00;95291.47;5043754;28;24432;-77
2022/06/24 06:43:30;;;;;;;7.77;2.37;;;;;;;20.00;100.00;95294.78;5042571;28;24996;-76
2022/06/24 06:45:57;;;;;;;4.75;2.00;;;;;;;19.85;100.00;95295.63;5040023;28;24430;-76
2022/06/24 06:48:25;;;;;;;9.93;2.67;;;;;;;19.94;100.00;95282.28;5037988;28;24455;-76
2022/06/24 06:50:56;;;;;;;5.57;2.30;;;;;;;19.77;100.00;95299.06;5042494;28;24447;-76
2022/06/24 06:53:23;;;;;;;7.47;2.42;;;;;;;19.54;100.00;95297.06;5045104;28;24459;-75
2022/06/24 06:55:49;;;;;;;4.88;2.10;;;;;;;19.56;100.00;95297.69;5041925;28;24442;-76
2022/06/24 06:58:17;;;;;;;10.00;2.63;;;;;;;19.42;100.00;95292.28;5048216;28;24428;-76
2022/06/24 07:00:44;;;;;;;9.88;2.47;;;;;;;19.31;100.00;95293.41;5040736;28;24459;-76
2022/06/24 07:03:10;;;;;;;4.70;2.40;;;;;;;19.41;100.00;95296.72;5031822;28;24431;-76
2022/06/24 07:05:38;;;;;;;9.63;2.60;;;;;;;19.55;100.00;95295.25;5037556;28;24438;-74
2022/06/24 07:08:05;;;;;;;6.38;2.72;;;;;;;19.73;100.00;95303.00;5034355;28;24450;-75
2022/06/24 07:10:32;;;;;;;4.25;2.00;;;;;;;19.90;100.00;95295.94;5032809;28;24570;-74
2022/06/24 07:12:58;;;;;;;7.03;2.55;;;;;;;20.30;100.00;95301.13;5031387;28;24518;-75
2022/06/24 07:15:25;;;;;;;6.25;2.75;;;;;;;20.44;100.00;95306.72;5032338;28;24432;-75
2022/06/24 07:17:51;;;;;;;6.70;2.05;;;;;;;20.83;100.00;95298.88;5046542;28;24424;-75
2022/06/24 07:20:18;;;;;;;6.63;2.63;;;;;;;20.85;100.00;95296.91;5040600;28;24537;-75
2022/06/24 07:22:46;;;;;;;7.07;2.33;;;;;;;21.11;100.00;95303.69;5043230;28;24506;-75
2022/06/24 07:25:12;;;;;;;8.10;2.13;;;;;;;21.58;100.00;95305.41;5039721;28;24514;-75
2022/06/24 07:27:39;;;;;;;10.38;2.58;;;;;;;21.10;100.00;95304.66;5032415;28;24459;-75
2022/06/24 07:30:06;;;;;;;6.93;2.15;;;;;;;20.96;100.00;95301.78;5035533;28;24447;-74
2022/06/24 07:32:33;;;;;;;7.82;2.20;;;;;;;20.94;100.00;95301.13;5045763;28;24527;-76
2022/06/24 07:34:59;;;;;;;5.10;2.22;;;;;;;20.51;100.00;95297.19;5038996;28;24806;-73
2022/06/24 07:37:26;;;;;;;3.10;1.60;;;;;;;20.88;100.00;95293.94;5032385;28;24428;-73
2022/06/24 07:39:53;;;;;;;6.00;2.28;;;;;;;21.13;100.00;95294.59;5043047;28;24488;-75
2022/06/24 07:42:20;;;;;;;4.78;1.75;;;;;;;21.75;100.00;95294.56;5034844;28;24501;-74
2022/06/24 07:44:47;;;;;;;3.77;1.83;;;;;;;21.95;100.00;95292.28;5033696;28;24554;-74
2022/06/24 07:47:14;;;;;;;10.63;2.28;;;;;;;21.82;100.00;95288.59;5035322;28;24551;-75
2022/06/24 07:49:40;;;;;;;4.70;2.05;;;;;;;21.91;100.00;95284.88;5041647;28;24797;-74
2022/06/24 07:52:09;;;;;;;4.50;2.17;;;;;;;22.27;98.55;95277.16;5039722;28;24438;-73
2022/06/24 07:54:36;;;;;;;5.38;2.00;;;;;;;22.71;95.86;95271.88;5036730;28;25064;-73
2022/06/24 07:57:03;;;;;;;8.15;2.20;;;;;;;22.24;93.57;95277.53;5044563;28;24494;-74
2022/06/24 07:59:32;;;;;;;3.47;1.77;;;;;;;22.25;95.93;95273.91;5040398;28;24529;-72
2022/06/24 08:02:00;;;;;;;3.40;1.60;;;;;;;22.84;94.20;95271.25;5035892;28;24444;-75
2022/06/24 08:04:28;;;;;;;6.40;2.10;;;;;;;23.02;88.96;95273.50;5042031;28;24443;-74
2022/06/24 08:06:56;;;;;;;8.65;2.05;;;;;;;22.99;89.95;95265.97;5041007;28;24541;-74
2022/06/24 08:09:25;;;;;;;2.70;1.60;;;;;;;22.83;94.02;95269.59;5041998;28;25022;-74
2022/06/24 08:11:52;;;;;;;3.97;1.70;;;;;;;22.59;92.42;95259.34;5037311;28;24446;-74
2022/06/24 08:14:22;;;;;;;5.25;1.83;;;;;;;22.58;89.77;95255.06;5039735;28;24435;-74
2022/06/24 08:16:48;;;;;;;3.97;1.50;;;;;;;22.87;88.89;95255.03;5039728;28;24979;-74
2022/06/24 08:19:15;;;;;;;3.65;1.55;;;;;;;22.51;92.22;95251.50;5042621;28;24794;-74
2022/06/24 08:21:42;;;;;;;5.77;2.20;;;;;;;22.56;92.49;95243.88;5041059;28;24524;-75
2022/06/24 08:24:09;;;;;;;3.77;1.57;;;;;;;23.08;91.33;95248.19;5037975;28;24506;-74
2022/06/24 08:26:36;;;;;;;2.72;1.60;;;;;;;23.00;89.26;95243.84;5042308;28;24471;-75
2022/06/24 08:29:03;;;;;;;3.42;1.35;;;;;;;23.17;90.04;95237.31;5038527;28;24487;-74
2022/06/24 08:31:31;;;;;;;3.42;1.60;;;;;;;23.00;83.28;95241.19;5045790;28;24851;-76
2022/06/24 08:33:57;;;;;;;3.83;1.67;;;;;;;22.76;84.87;95233.56;5034549;28;25061;-74
2022/06/24 08:36:26;;;;;;;5.28;1.65;;;;;;;23.01;83.80;95234.09;5041442;28;25051;-75
2022/06/24 08:38:52;;;;;;;4.88;1.58;;;;;;;22.44;83.11;95225.88;5040207;28;24432;-75
2022/06/24 08:41:23;;;;;;;4.03;1.45;;;;;;;23.35;86.76;95230.78;5035553;28;24520;-74
2022/06/24 08:43:51;;;;;;;3.33;1.50;;;;;;;23.76;86.64;95217.75;5039821;28;24486;-74
2022/06/24 08:46:17;;;;;;;3.60;1.80;;;;;;;23.90;79.45;95216.88;5046040;28;24435;-74
2022/06/24 08:48:45;;;;;;;3.63;1.20;;;;;;;23.60;80.69;95216.19;5034737;28;24487;-75
2022/06/24 08:51:13;;;;;;;2.70;1.33;;;;;;;23.90;81.71;95213.41;5033501;28;25004;-74
2022/06/24 08:53:40;;;;;;;3.67;1.60;;;;;;;23.19;80.56;95219.47;5038684;28;24836;-74
2022/06/24 08:56:07;;;;;;;4.05;1.70;;;;;;;23.24;83.08;95221.53;5043297;28;24965;-76
2022/06/24 08:58:35;;;;;;;4.50;1.50;;;;;;;23.65;82.42;95224.34;5038310;28;24536;-75
2022/06/24 09:01:01;;;;;;;2.97;1.38;;;;;;;24.43;75.61;95218.25;5043905;28;24790;-75
2022/06/24 09:03:28;;;;;;;2.70;1.15;;;;;;;24.82;75.59;95218.44;5038419;28;24800;-75
2022/06/24 09:05:56;;;;;;;2.80;1.40;;;;;;;24.90;76.71;95216.63;5038648;28;24494;-75
2022/06/24 09:08:22;;;;;;;3.38;1.70;;;;;;;24.09;76.55;95212.72;5038241;28;24529;-74
2022/06/24 09:13:30;;;;;;;3.77;1.50;;;;;;;23.89;80.60;95207.31;5037599;28;24432;-74
2022/06/24 09:15:56;;;;;;;2.83;1.35;;;;;;;23.88;76.61;95205.69;5043305;28;25018;-73
2022/06/24 09:18:24;;;;;;;2.70;1.23;;;;;;;24.29;77.37;95207.56;5029887;28;24455;-75
2022/06/24 09:20:56;;;;;;;8.82;1.85;;;;;;;24.71;75.03;95211.06;5034080;28;24440;-73
2022/06/24 09:23:24;;;;;;;2.22;1.17;;;;;;;25.49;75.66;95214.16;5043351;28;24435;-74
2022/06/24 09:25:53;;;;;;;2.50;1.38;;;;;;;25.78;78.95;95207.66;5035951;28;24845;-74
2022/06/24 09:28:22;;;;;;;3.60;1.20;;;;;;;25.73;70.46;95217.22;5047936;28;24459;-74
2022/06/24 09:30:50;;;;;;;8.77;1.70;;;;;;;24.81;71.75;95216.00;5043456;28;24435;-74
2022/06/24 09:33:18;;;;;;;3.75;1.67;;;;;;;24.66;70.21;95213.50;5039770;28;24439;-74
2022/06/24 09:35:44;;;;;;;3.53;1.20;;;;;;;24.51;69.72;95207.50;5039172;28;24439;-74
2022/06/24 09:38:12;;;;;;;4.50;1.48;;;;;;;23.98;71.42;95207.16;5042348;28;24435;-73
2022/06/24 09:40:41;;;;;;;5.10;1.30;;;;;;;23.29;74.45;95210.41;5038396;28;24440;-75
2022/06/24 09:43:09;;;;;;;4.63;1.17;;;;;;;23.37;76.37;95205.81;5045313;28;24536;-75
2022/06/24 09:45:46;;;;;;;3.20;1.50;;;;;;;23.61;75.95;95201.94;5048238;28;24432;-77
2022/06/24 09:48:13;;;;;;;2.33;0.93;;;;;;;23.81;75.64;95201.34;5039006;28;24479;-75
2022/06/24 09:50:41;;;;;;;3.03;1.30;;;;;;;24.10;73.44;95198.50;5045970;28;24443;-76
2022/06/24 09:53:09;;;;;;;2.10;1.05;;;;;;;24.25;72.63;95195.75;5049582;28;25271;-75
2022/06/24 09:55:37;;;;;;;4.60;1.38;;;;;;;24.65;71.09;95193.31;5048266;28;24539;-78
2022/06/24 09:58:05;;;;;;;4.15;1.38;;;;;;;25.40;73.91;95198.63;5042971;28;24987;-75
2022/06/24 10:00:41;;;;;;;4.10;1.30;;;;;;;24.72;68.64;95202.09;5042405;28;24844;-75
2022/06/24 10:03:10;;;;;;;5.53;1.70;;;;;;;23.78;75.79;95194.59;5034278;28;24474;-75
2022/06/24 10:05:38;;;;;;;3.30;1.60;;;;;;;23.30;78.94;95206.75;5044841;28;24466;-76
2022/06/24 10:08:06;;;;;;;3.40;1.38;;;;;;;22.52;82.33;95205.66;5045035;28;24462;-75
2022/06/24 10:10:35;;;;;;;4.55;1.40;;;;;;;22.29;82.53;95211.06;5041151;28;24494;-75
2022/06/24 10:13:08;;;;;;;2.77;1.33;;;;;;;22.52;82.12;95214.41;5044194;28;24515;-75
2022/06/24 10:15:34;;;;;;;3.40;1.60;;;;;;;22.46;78.30;95213.28;5044170;28;24520;-78
2022/06/24 10:18:02;;;;;;;7.90;1.60;;;;;;;22.52;79.30;95210.94;5033208;28;24436;-75
2022/06/24 10:20:29;;;;;;;6.20;1.60;;;;;;;22.58;79.60;95207.56;5043173;28;24439;-75
2022/06/24 10:22:57;;;;;;;2.22;1.20;;;;;;;23.17;84.19;95207.44;5041950;28;24448;-76
2022/06/24 10:25:52;;;;;;;2.88;1.33;;;;;;;23.56;82.30;95208.84;5046148;28;24467;-75
2022/06/24 10:28:19;;;;;;;3.72;1.52;;;;;;;24.40;81.65;95198.28;5043474;28;24463;-75
2022/06/24 10:30:59;;;;;;;2.95;1.13;;;;;;;24.41;71.71;95201.75;5041538;28;24443;-75
2022/06/24 10:33:30;;;;;;;2.60;1.23;;;;;;;24.82;78.94;95207.84;5037657;28;24431;-75
2022/06/24 10:36:02;;;;;;;4.18;1.45;;;;;;;24.32;70.41;95204.50;5045209;28;24444;-75
2022/06/24 10:38:36;;;;;;;2.13;1.05;;;;;;;24.30;70.25;95209.19;5044081;28;24522;-75
2022/06/24 10:41:03;;;;;;;2.50;1.43;;;;;;;24.59;72.32;95204.69;5037751;28;24431;-75
2022/06/24 10:43:35;;;;;;;2.78;1.30;;;;;;;24.18;70.92;95205.47;5034472;28;24447;-75
2022/06/24 10:46:20;;;;;;;2.22;1.05;;;;;;;23.92;70.88;95200.81;5039410;28;24463;-75
2022/06/24 10:49:00;;;;;;;4.47;1.08;;;;;;;23.71;71.49;95198.22;5032367;28;24860;-75
2022/06/24 10:51:31;;;;;;;2.47;1.00;;;;;;;23.34;71.03;95195.63;5037175;28;25069;-75
2022/06/24 10:54:16;;;;;;;2.83;1.10;;;;;;;23.08;71.99;95192.72;5034858;28;24443;-75
2022/06/24 10:56:45;;;;;;;1.98;1.13;;;;;;;23.14;73.20;95198.09;5042849;28;24431;-75
2022/06/24 10:59:14;;;;;;;2.42;1.40;;;;;;;23.15;75.17;95196.25;5041075;28;24431;-75
2022/06/24 11:01:42;;;;;;;2.05;1.10;;;;;;;23.25;77.40;95198.56;5033711;28;24471;-75
2022/06/24 11:04:13;;;;;;;2.28;1.20;;;;;;;23.26;74.67;95194.94;5031955;28;24534;-75
2022/06/24 11:06:40;;;;;;;1.80;1.05;;;;;;;23.00;74.58;95201.59;5032160;28;24504;-75
2022/06/24 11:09:08;;;;;;;1.90;1.15;;;;;;;23.13;71.46;95190.31;5040469;28;24600;-75
2022/06/24 11:11:35;;;;;;;2.78;1.38;;;;;;;23.17;70.86;95184.47;5043150;28;24438;-76
2022/06/24 11:14:23;;;;;;;2.85;1.30;;;;;;;23.56;71.58;95199.06;5041396;28;24437;-75
2022/06/24 11:16:50;;;;;;;2.47;1.35;;;;;;;23.42;71.46;95189.38;5043534;28;24434;-75
2022/06/24 11:19:17;;;;;;;2.70;1.13;;;;;;;23.67;68.99;95182.72;5042987;28;24824;-75
2022/06/24 11:21:48;;;;;;;1.37;1.00;;;;;;;23.86;68.48;95185.72;5043827;28;24489;-75
2022/06/24 11:24:18;;;;;;;2.65;0.98;;;;;;;23.50;69.55;95181.31;5038496;28;24439;-75
2022/06/24 11:27:06;;;;;;;2.80;1.27;;;;;;;23.34;68.54;95181.59;5037700;28;24999;-75
2022/06/24 11:29:54;;;;;;;2.40;0.93;;;;;;;23.35;68.22;95185.88;5037374;28;24452;-75
2022/06/24 11:32:21;;;;;;;2.50;0.98;;;;;;;23.08;70.77;95192.72;5039653;28;24800;-75
2022/06/24 11:34:48;;;;;;;3.78;1.20;;;;;;;23.01;69.84;95189.19;5040447;28;24493;-75
2022/06/24 11:37:22;;;;;;;1.80;0.90;;;;;;;23.04;70.28;95186.19;5042362;28;25091;-75
2022/06/24 11:39:51;;;;;;;5.00;1.00;;;;;;;22.93;70.73;95184.84;5037985;28;24443;-75